Time;durP1;ratioP1;P1;durP2;ratioP2;P2;SDS_P1;SDS_P2;PMS_P1;PMS_P2;Temp;Humidity;BMP_temperature;BMP_pressure;BME280_temperature;BME280_humidity;BME280_pressure;Samples;Min_cycle;Max_cycle;Signal;HPM_P1;HPM_P2
2021/04/10 00:05:00;;;;;;;20.08;10.73;;;;;;;7.58;45.51;99050.11;258271;1119;114846;-71
2021/04/10 00:10:07;;;;;;;23.18;11.23;;;;;;;7.54;45.40;99043.23;257970;1119;114584;-78
2021/04/10 00:15:14;;;;;;;20.55;11.25;;;;;;;7.49;45.81;99040.82;258291;1119;115574;-70
2021/04/10 00:20:18;;;;;;;21.77;10.73;;;;;;;7.48;46.56;99033.81;258201;1119;114972;-77
2021/04/10 00:25:21;;;;;;;20.63;10.63;;;;;;;7.47;46.38;99031.23;258428;1118;114377;-77
2021/04/10 00:30:30;;;;;;;20.50;10.05;;;;;;;7.51;46.23;99022.23;256961;1118;114705;-71
2021/04/10 00:35:33;;;;;;;24.18;10.70;;;;;;;7.53;46.57;99023.84;258321;1120;114491;-72
2021/04/10 00:40:36;;;;;;;22.38;10.45;;;;;;;7.51;46.73;99022.23;258328;1118;114621;-71
2021/04/10 00:45:39;;;;;;;20.35;10.85;;;;;;;7.50;47.09;99023.14;257963;1119;115236;-71
2021/04/10 00:50:41;;;;;;;25.10;10.58;;;;;;;7.50;47.05;99028.43;258348;1118;114968;-69
2021/04/10 00:55:46;;;;;;;27.50;10.98;;;;;;;7.50;47.07;99017.84;257995;1119;114713;-78
2021/04/10 01:00:49;;;;;;;22.20;10.40;;;;;;;7.48;47.66;99014.44;258166;1119;114214;-71
2021/04/10 01:05:52;;;;;;;20.63;10.70;;;;;;;7.46;47.25;99009.20;257840;1118;114601;-79
2021/04/10 01:11:14;;;;;;;20.40;10.68;;;;;;;7.43;47.34;99001.41;257029;1119;114659;-78
2021/04/10 01:16:20;;;;;;;19.00;9.18;;;;;;;7.42;46.92;99006.79;257127;1118;115073;-71
2021/04/10 01:21:38;;;;;;;18.93;9.60;;;;;;;7.40;47.68;99003.34;258085;1118;114605;-70
2021/04/10 01:26:47;;;;;;;16.30;9.28;;;;;;;7.38;47.45;99005.23;258200;1119;114318;-70
2021/04/10 01:31:53;;;;;;;20.85;9.65;;;;;;;7.33;47.73;99008.09;257862;1119;114628;-70
2021/04/10 01:37:07;;;;;;;21.38;10.75;;;;;;;7.27;47.76;99003.97;258391;1118;114364;-70
2021/04/10 01:42:13;;;;;;;18.55;10.90;;;;;;;7.25;49.09;99000.53;257629;1119;116916;-78
2021/04/10 01:47:17;;;;;;;22.95;10.00;;;;;;;7.20;48.94;98991.09;257629;1119;114624;-70
2021/04/10 01:52:24;;;;;;;20.05;10.40;;;;;;;7.16;48.53;98992.18;257906;1119;114398;-70
2021/04/10 01:57:28;;;;;;;22.20;9.88;;;;;;;7.12;48.27;98991.47;257825;1119;114450;-70
2021/04/10 02:02:40;;;;;;;21.33;11.00;;;;;;;7.12;48.81;98991.47;258257;1119;114250;-70
2021/04/10 02:07:47;;;;;;;22.23;11.30;;;;;;;7.09;48.71;98986.33;258007;1119;114570;-77
2021/04/10 02:12:53;;;;;;;23.05;10.45;;;;;;;7.06;48.69;98983.83;257744;1119;114650;-70
2021/04/10 02:18:11;;;;;;;26.38;11.30;;;;;;;7.03;48.35;98978.68;258219;1118;114563;-70
2021/04/10 02:23:15;;;;;;;25.25;10.38;;;;;;;6.97;48.61;98981.65;258233;1118;114723;-69
2021/04/10 02:28:24;;;;;;;25.55;10.83;;;;;;;6.87;49.38;98982.08;258265;1118;114947;-69
2021/04/10 02:33:36;;;;;;;24.83;11.13;;;;;;;6.82;49.60;98977.94;258245;1119;117044;-68
2021/04/10 02:38:42;;;;;;;24.40;10.40;;;;;;;6.75;49.51;98979.16;258295;1118;114733;-71
2021/04/10 02:43:52;;;;;;;26.53;10.98;;;;;;;6.72;49.45;98987.23;256614;1119;114352;-76
2021/04/10 02:49:01;;;;;;;22.73;10.50;;;;;;;6.66;49.28;98983.11;258007;1119;114518;-77
2021/04/10 02:54:07;;;;;;;23.18;11.15;;;;;;;6.61;49.43;98983.30;258096;1120;114736;-70
2021/04/10 02:59:12;;;;;;;28.20;11.80;;;;;;;6.61;49.90;98977.16;258316;1119;114968;-70
2021/04/10 03:04:16;;;;;;;21.90;11.33;;;;;;;6.63;49.77;98983.25;258357;1120;114801;-74
2021/04/10 03:09:19;;;;;;;24.23;11.58;;;;;;;6.64;49.97;98974.38;258103;1118;114716;-78
2021/04/10 03:14:23;;;;;;;25.30;11.90;;;;;;;6.61;50.09;98978.02;257235;1118;114719;-78
2021/04/10 03:19:27;;;;;;;23.55;11.15;;;;;;;6.58;50.43;98972.02;257479;1119;114823;-79
2021/04/10 03:24:31;;;;;;;24.25;11.48;;;;;;;6.53;50.23;98976.68;257772;1119;117013;-77
2021/04/10 03:29:35;;;;;;;28.15;11.93;;;;;;;6.50;50.76;98977.67;258028;1119;114804;-77
2021/04/10 03:34:39;;;;;;;;;;;;;;;6.49;50.08;98980.37;258315;1119;114681;-76
2021/04/10 03:39:44;;;;;;;19.60;10.47;;;;;;;6.42;50.31;98984.23;258085;1119;101196;-77
2021/04/10 03:44:46;;;;;;;28.80;11.90;;;;;;;6.36;51.42;98990.67;258077;1119;114571;-78
2021/04/10 03:50:10;;;;;;;24.98;10.98;;;;;;;6.32;51.37;98982.02;258279;1119;114208;-77
2021/04/10 03:55:15;;;;;;;29.65;12.80;;;;;;;6.28;51.79;98987.50;258231;1118;114949;-78
2021/04/10 04:00:19;;;;;;;36.35;13.70;;;;;;;6.24;51.71;98992.06;258297;1119;114700;-71
2021/04/10 04:05:27;;;;;;;32.38;15.25;;;;;;;6.18;51.89;98989.70;258061;1119;114766;-71
2021/04/10 04:10:30;;;;;;;32.70;16.03;;;;;;;6.12;51.73;98987.36;258365;1119;114521;-71
2021/04/10 04:15:33;;;;;;;41.03;17.05;;;;;;;6.06;51.45;98991.11;258338;1118;114642;-78
2021/04/10 04:20:36;;;;;;;33.88;17.00;;;;;;;5.99;51.78;98996.75;258286;1119;114656;-71
2021/04/10 04:25:38;;;;;;;32.63;17.05;;;;;;;5.94;52.47;98999.56;258381;1119;114556;-70
2021/04/10 04:30:41;;;;;;;31.05;16.05;;;;;;;5.91;52.74;99004.98;257995;1118;114650;-79
2021/04/10 04:35:43;;;;;;;43.27;17.73;;;;;;;5.88;52.47;98999.83;258301;1118;114888;-70
2021/04/10 04:40:46;;;;;;;38.78;17.83;;;;;;;5.89;53.07;99001.53;258513;1119;114752;-77
2021/04/10 04:45:49;;;;;;;37.85;17.08;;;;;;;5.92;52.73;99004.05;258324;1118;114771;-71
2021/04/10 04:50:52;;;;;;;36.48;17.13;;;;;;;5.96;53.25;99007.44;258067;1119;114663;-78
2021/04/10 04:55:55;;;;;;;35.93;16.28;;;;;;;6.01;53.31;99013.37;258283;1119;114660;-79
2021/04/10 05:00:59;;;;;;;36.10;15.55;;;;;;;6.07;53.92;99016.59;258335;1118;114781;-71
2021/04/10 05:06:02;;;;;;;28.30;14.60;;;;;;;6.15;53.03;99013.64;258240;1118;115427;-78
2021/04/10 05:11:05;;;;;;;28.78;14.55;;;;;;;6.28;53.32;99017.42;258109;1119;114893;-78
2021/04/10 05:16:08;;;;;;;29.88;13.98;;;;;;;6.44;53.57;99024.67;258158;1119;114510;-71
2021/04/10 05:21:11;;;;;;;28.98;14.70;;;;;;;6.58;53.75;99024.89;258306;1118;114822;-71
2021/04/10 05:26:14;;;;;;;24.90;14.05;;;;;;;6.71;53.69;99036.63;258272;1120;114839;-78
2021/04/10 05:31:17;;;;;;;35.43;14.98;;;;;;;6.88;53.92;99039.34;258281;1118;115706;-70
2021/04/10 05:36:21;;;;;;;28.80;13.93;;;;;;;7.08;53.75;99037.55;258276;1119;114614;-70
2021/04/10 05:41:24;;;;;;;26.95;13.95;;;;;;;7.30;53.94;99037.34;258331;1119;114700;-70
2021/04/10 05:46:27;;;;;;;28.18;14.10;;;;;;;7.50;53.67;99029.28;258270;1119;114699;-71
2021/04/10 05:51:30;;;;;;;28.40;14.13;;;;;;;7.78;53.41;99042.03;258402;1118;114677;-78
2021/04/10 05:56:35;;;;;;;27.73;13.33;;;;;;;8.05;53.22;99037.11;258286;1118;114971;-78
2021/04/10 06:01:37;;;;;;;25.78;13.63;;;;;;;8.36;53.16;99042.60;257639;1119;114771;-70
2021/04/10 06:06:40;;;;;;;26.43;13.65;;;;;;;8.63;53.00;99037.66;258344;1119;114761;-71
2021/04/10 06:11:42;;;;;;;29.40;13.33;;;;;;;8.88;52.25;99039.81;258322;1118;114987;-70
2021/04/10 06:16:52;;;;;;;30.33;13.33;;;;;;;9.14;52.36;99041.88;257803;1117;114744;-70
2021/04/10 06:21:56;;;;;;;26.05;12.30;;;;;;;9.39;51.84;99041.33;257850;1117;114955;-70
2021/04/10 06:26:59;;;;;;;20.30;9.03;;;;;;;9.65;51.08;99046.96;257757;1110;114661;-71
2021/04/10 06:32:02;;;;;;;15.18;6.80;;;;;;;9.90;50.55;99038.39;257650;1118;114672;-71
2021/04/10 06:37:05;;;;;;;12.25;6.73;;;;;;;10.18;50.11;99040.25;257807;1117;115383;-71
2021/04/10 06:42:09;;;;;;;13.03;6.08;;;;;;;10.42;49.31;99049.42;257599;1117;115338;-72
2021/04/10 06:47:12;;;;;;;17.10;6.90;;;;;;;10.61;48.78;99043.84;257681;1118;114995;-79
2021/04/10 06:52:16;;;;;;;16.73;7.30;;;;;;;10.80;48.34;99043.55;257986;1119;115038;-79
2021/04/10 06:57:22;;;;;;;14.50;5.95;;;;;;;11.00;48.52;99050.25;257738;1117;115552;-80
2021/04/10 07:02:26;;;;;;;14.10;6.28;;;;;;;11.38;48.65;99049.63;257360;1119;115526;-81
2021/04/10 07:07:29;;;;;;;12.15;6.43;;;;;;;11.86;48.10;99049.18;254827;1117;115212;-82
2021/04/10 07:12:31;;;;;;;14.65;5.63;;;;;;;12.07;47.20;99042.38;254247;1119;115607;-79
2021/04/10 07:17:35;;;;;;;12.98;5.60;;;;;;;12.18;46.74;99049.65;257779;1117;115005;-80
2021/04/10 07:23:15;;;;;;;14.83;6.00;;;;;;;12.28;46.22;99046.23;258066;1118;115192;-80
2021/04/10 07:28:31;;;;;;;9.03;4.90;;;;;;;12.38;45.28;99043.80;253591;1118;115149;-78
2021/04/10 07:33:38;;;;;;;11.70;5.00;;;;;;;12.49;44.92;99041.22;257226;1118;114691;-78
2021/04/10 07:38:43;;;;;;;10.93;4.45;;;;;;;12.63;44.81;99050.08;256855;1118;115011;-80
2021/04/10 07:43:46;;;;;;;10.40;4.50;;;;;;;12.75;44.69;99046.56;255567;1118;115138;-78
2021/04/10 07:49:11;;;;;;;9.85;4.18;;;;;;;12.88;44.44;99046.55;257946;1117;114896;-78
2021/04/10 07:54:38;;;;;;;12.58;4.85;;;;;;;13.01;43.89;99034.88;257931;1117;114747;-78
2021/04/10 07:59:50;;;;;;;9.00;3.85;;;;;;;13.17;44.32;99037.27;256673;1117;115140;-71
2021/04/10 08:05:07;;;;;;;8.75;3.80;;;;;;;13.29;43.65;99035.56;258035;1118;114575;-70
2021/04/10 08:10:11;;;;;;;9.10;4.05;;;;;;;13.44;42.81;99028.23;257698;1118;114857;-71
2021/04/10 08:15:25;;;;;;;6.28;3.48;;;;;;;13.60;43.09;99027.95;257869;1118;114713;-73
2021/04/10 08:20:30;;;;;;;7.65;3.23;;;;;;;13.76;42.40;99028.52;257588;1118;115330;-74
2021/04/10 08:25:33;;;;;;;6.75;2.95;;;;;;;13.92;42.52;99025.52;257633;1117;114852;-75
2021/04/10 08:30:37;;;;;;;9.43;3.50;;;;;;;14.06;41.45;99016.43;257421;1117;114932;-75
2021/04/10 08:35:39;;;;;;;7.08;2.95;;;;;;;14.26;41.31;99020.25;257617;1118;114875;-73
2021/04/10 08:40:42;;;;;;;7.33;2.88;;;;;;;14.44;41.40;99016.16;257467;1118;115657;-74
2021/04/10 08:45:51;;;;;;;6.68;3.13;;;;;;;14.60;40.56;99026.53;257703;1117;114975;-72
2021/04/10 08:50:57;;;;;;;4.45;2.75;;;;;;;14.74;40.31;99020.95;257672;1119;115868;-70
2021/04/10 08:56:06;;;;;;;10.25;2.70;;;;;;;14.88;40.06;99009.98;257681;1118;115597;-72
2021/04/10 09:01:17;;;;;;;7.95;3.08;;;;;;;15.07;40.20;98998.61;257806;1118;115261;-73
2021/04/10 09:06:22;;;;;;;4.13;2.50;;;;;;;15.25;39.54;99003.45;257747;1117;115101;-71
2021/04/10 09:11:25;;;;;;;5.45;2.38;;;;;;;15.41;38.94;99008.41;257531;1119;114851;-72
2021/04/10 09:16:29;;;;;;;17.88;12.35;;;;;;;15.59;39.72;98999.70;257727;1119;114829;-72
2021/04/10 09:21:53;;;;;;;22.70;13.80;;;;;;;15.83;39.40;98996.83;257662;1118;115734;-73
2021/04/10 09:27:11;;;;;;;4.85;2.33;;;;;;;16.00;37.83;98998.08;257654;1118;115391;-74
2021/04/10 09:32:31;;;;;;;4.93;2.70;;;;;;;16.14;38.03;98996.06;257772;1117;115403;-77
2021/04/10 09:37:34;;;;;;;7.38;3.20;;;;;;;16.37;38.27;98999.42;257592;1119;114882;-74
2021/04/10 09:47:55;;;;;;;7.23;3.33;;;;;;;16.81;37.31;98994.71;257770;1118;115692;-75
2021/04/10 09:53:03;;;;;;;47.78;31.10;;;;;;;16.97;37.91;98990.53;257456;1118;114996;-74
2021/04/10 09:58:10;;;;;;;8.63;2.95;;;;;;;17.17;37.28;98993.28;257873;1118;115547;-74
2021/04/10 10:03:15;;;;;;;13.05;2.95;;;;;;;17.35;36.94;98983.53;257407;1117;115144;-73
2021/04/10 10:08:43;;;;;;;7.38;3.38;;;;;;;17.52;36.54;98986.52;257714;1117;114960;-73
2021/04/10 10:13:47;;;;;;;9.90;4.48;;;;;;;17.68;36.36;98984.13;257834;1118;114914;-75
2021/04/10 10:18:50;;;;;;;7.65;4.25;;;;;;;17.91;36.60;98977.50;256616;1111;114547;-76
2021/04/10 10:23:56;;;;;;;10.60;4.85;;;;;;;18.13;36.10;98967.39;257561;1118;114753;-73
2021/04/10 10:29:08;;;;;;;8.15;3.33;;;;;;;18.37;36.13;98962.36;257540;1118;115477;-73
2021/04/10 10:34:19;;;;;;;7.47;2.40;;;;;;;18.57;35.86;98952.36;256347;1118;117327;-74
2021/04/10 10:39:25;;;;;;;2.38;2.00;;;;;;;18.73;35.34;98954.47;257798;1118;115031;-74
2021/04/10 10:44:28;;;;;;;3.83;2.43;;;;;;;18.89;35.02;98956.52;257752;1118;114841;-73
2021/04/10 10:49:32;;;;;;;4.80;2.13;;;;;;;19.02;34.46;98965.11;254073;1118;115088;-72
2021/04/10 10:54:39;;;;;;;4.78;2.45;;;;;;;19.11;34.91;98952.55;257744;1119;114768;-74
2021/04/10 10:59:42;;;;;;;4.88;2.43;;;;;;;19.14;34.54;98961.19;257507;1117;115127;-74
2021/04/10 11:04:47;;;;;;;4.75;2.38;;;;;;;19.20;34.37;98953.50;257891;1118;115471;-74
2021/04/10 11:09:51;;;;;;;3.18;2.40;;;;;;;19.36;34.96;98949.13;257832;1112;114894;-74
2021/04/10 11:14:58;;;;;;;3.58;2.28;;;;;;;19.53;34.28;98946.56;257647;1119;115167;-74
2021/04/10 11:20:29;;;;;;;6.75;1.78;;;;;;;19.70;33.49;98953.86;257667;1117;115072;-74
2021/04/10 11:25:53;;;;;;;5.08;1.88;;;;;;;19.92;33.31;98944.41;257779;1118;115729;-74
2021/04/10 11:31:22;;;;;;;7.30;2.18;;;;;;;20.15;33.13;98941.20;257787;1118;114964;-74
2021/04/10 11:36:25;;;;;;;3.10;1.83;;;;;;;20.31;31.88;98943.98;257853;1118;115026;-73
2021/04/10 11:41:44;;;;;;;2.68;1.50;;;;;;;20.53;31.26;98937.23;257744;1118;115082;-74
2021/04/10 11:46:57;;;;;;;4.25;1.48;;;;;;;20.82;30.86;98926.02;257311;1118;114817;-80
2021/04/10 11:52:07;;;;;;;3.28;1.50;;;;;;;21.10;30.32;98923.94;257983;1118;115038;-81
2021/04/10 11:57:28;;;;;;;4.03;1.73;;;;;;;21.39;30.00;98923.50;258002;1117;114850;-74
2021/04/10 12:02:36;;;;;;;4.18;1.45;;;;;;;21.66;29.73;98930.47;257437;1112;114825;-71
2021/04/10 12:08:18;;;;;;;2.80;1.60;;;;;;;21.95;29.38;98929.97;254977;1118;114888;-79
2021/04/10 12:13:23;;;;;;;2.70;1.63;;;;;;;22.34;28.98;98923.83;256603;1117;114913;-78
2021/04/10 12:18:28;;;;;;;4.30;1.80;;;;;;;22.74;28.70;98916.59;257895;1118;115125;-78
2021/04/10 12:23:30;;;;;;;4.75;1.70;;;;;;;23.10;28.11;98926.98;257700;1118;115252;-70
2021/04/10 12:28:34;;;;;;;4.33;2.00;;;;;;;23.26;28.18;98928.73;257627;1118;115032;-73
2021/04/10 12:33:40;;;;;;;2.78;1.60;;;;;;;23.33;27.38;98919.68;257045;1119;115338;-74
2021/04/10 12:38:43;;;;;;;8.77;2.17;;;;;;;23.38;27.02;98924.59;257656;1117;114901;-81
2021/04/10 12:43:46;;;;;;;3.75;1.90;;;;;;;23.53;27.43;98919.22;257956;1118;114780;-75
2021/04/10 12:48:49;;;;;;;4.93;1.75;;;;;;;23.81;27.30;98925.83;257635;1118;115333;-74
2021/04/10 12:53:52;;;;;;;5.75;2.13;;;;;;;23.86;26.77;98919.84;257882;1111;114855;-75
2021/04/10 12:58:56;;;;;;;8.33;1.83;;;;;;;23.98;26.57;98915.66;257737;1118;114988;-74
2021/04/10 13:03:59;;;;;;;3.50;2.10;;;;;;;24.17;26.58;98910.72;256717;1119;115603;-74
2021/04/10 13:09:03;;;;;;;4.58;1.90;;;;;;;24.23;26.34;98909.98;257235;1119;114963;-81
2021/04/10 13:14:06;;;;;;;4.30;1.85;;;;;;;24.39;26.10;98898.92;258070;1119;114784;-81
2021/04/10 13:19:09;;;;;;;5.88;1.90;;;;;;;24.21;25.73;98906.59;256977;1119;114405;-79
2021/04/10 13:24:13;;;;;;;6.20;2.75;;;;;;;24.17;25.37;98899.84;256494;1118;115174;-80
2021/04/10 13:29:15;;;;;;;4.78;1.90;;;;;;;24.26;25.58;98910.45;257132;1119;114644;-79
2021/04/10 13:34:19;;;;;;;2.83;1.83;;;;;;;24.50;25.46;98903.92;255487;1119;114864;-78
2021/04/10 13:39:22;;;;;;;8.55;2.20;;;;;;;24.44;24.93;98906.55;258048;1119;114729;-70
2021/04/10 13:44:25;;;;;;;5.15;1.80;;;;;;;24.58;25.37;98908.41;258033;1119;114665;-70
2021/04/10 13:49:28;;;;;;;4.35;2.10;;;;;;;24.68;24.84;98897.25;257763;1119;114984;-70
2021/04/10 13:54:30;;;;;;;4.10;2.10;;;;;;;24.80;24.67;98898.47;258130;1118;114618;-79
2021/04/10 13:59:33;;;;;;;4.10;1.88;;;;;;;24.90;24.63;98900.89;258401;1119;114635;-71
2021/04/10 14:04:58;;;;;;;6.00;2.10;;;;;;;25.09;24.85;98902.98;256692;1119;114665;-82
2021/04/10 14:10:02;;;;;;;3.83;2.50;;;;;;;24.87;24.08;98904.00;254967;1119;114659;-76
2021/04/10 14:15:07;;;;;;;7.93;1.85;;;;;;;24.55;23.91;98914.23;258327;1118;114727;-75
2021/04/10 14:20:14;;;;;;;7.85;2.03;;;;;;;24.01;23.90;98906.27;258014;1119;114674;-75
2021/04/10 14:25:19;;;;;;;4.13;2.37;;;;;;;23.44;24.07;98910.30;254656;1119;114921;-82
2021/04/10 14:30:29;;;;;;;8.10;2.57;;;;;;;22.91;24.14;98904.63;256985;1118;114905;-80
2021/04/10 14:35:44;;;;;;;6.90;2.68;;;;;;;22.44;24.30;98902.78;258273;1119;114695;-79
2021/04/10 14:40:47;;;;;;;;;;;;;;;22.06;24.66;98896.25;258370;1119;114596;-78
2021/04/10 14:45:51;;;;;;;6.88;2.33;;;;;;;21.71;24.73;98895.61;258105;1119;101313;-79
2021/04/10 14:50:54;;;;;;;5.90;2.20;;;;;;;21.45;24.67;98895.77;258401;1118;114671;-81
2021/04/10 14:55:59;;;;;;;9.33;2.50;;;;;;;21.24;24.85;98900.80;256264;1118;115254;-82
2021/04/10 15:01:05;;;;;;;3.78;2.10;;;;;;;21.01;25.08;98901.41;257078;1119;114678;-78
2021/04/10 15:06:09;;;;;;;;;;;;;;;20.78;24.88;98901.16;258022;1118;115132;-79
2021/04/10 15:11:13;;;;;;;6.20;3.10;;;;;;;20.50;25.35;98905.08;258202;1118;101105;-75
2021/04/10 15:16:18;;;;;;;6.08;2.70;;;;;;;20.31;25.58;98900.74;257659;1119;114516;-73
2021/04/10 15:21:22;;;;;;;5.08;2.58;;;;;;;20.19;25.51;98912.86;258141;1119;114763;-75
2021/04/10 15:26:25;;;;;;;7.20;3.05;;;;;;;20.12;25.65;98909.09;258229;1119;115699;-78
2021/04/10 15:31:29;;;;;;;8.40;3.58;;;;;;;20.02;26.13;98911.90;256465;1119;114653;-74
2021/04/10 15:36:32;;;;;;;7.18;2.80;;;;;;;19.96;26.27;98912.53;258269;1119;114453;-74
2021/04/10 15:41:35;;;;;;;7.03;2.73;;;;;;;19.94;26.35;98909.13;255639;1119;115165;-74
2021/04/10 15:46:38;;;;;;;5.00;2.73;;;;;;;19.94;26.38;98918.10;257759;1119;115117;-74
2021/04/10 15:51:41;;;;;;;11.35;2.75;;;;;;;19.90;26.54;98922.09;258246;1119;115674;-74
2021/04/10 15:56:44;;;;;;;8.38;2.58;;;;;;;19.85;26.37;98919.04;258376;1119;114784;-74
2021/04/10 16:01:46;;;;;;;9.25;2.73;;;;;;;19.83;26.36;98921.03;258123;1118;114817;-75
2021/04/10 16:06:49;;;;;;;6.88;2.58;;;;;;;19.94;26.43;98918.10;258329;1119;114730;-75
2021/04/10 16:11:52;;;;;;;6.53;3.10;;;;;;;20.16;26.46;98908.61;256707;1119;114633;-74
2021/04/10 16:16:54;;;;;;;5.08;3.00;;;;;;;20.43;26.49;98921.09;258294;1119;114741;-76
2021/04/10 16:21:57;;;;;;;6.58;2.63;;;;;;;20.52;26.51;98919.33;258208;1118;114634;-76
2021/04/10 16:27:00;;;;;;;4.30;2.30;;;;;;;20.43;26.45;98920.25;255722;1120;115056;-77
2021/04/10 16:32:03;;;;;;;9.53;2.70;;;;;;;20.24;26.65;98916.75;255445;1119;115585;-77
2021/04/10 16:37:06;;;;;;;8.65;3.08;;;;;;;20.04;26.95;98909.87;257145;1118;114936;-76
2021/04/10 16:42:09;;;;;;;15.30;3.50;;;;;;;19.88;26.75;98917.88;255676;1118;114751;-80
2021/04/10 16:47:12;;;;;;;14.38;3.20;;;;;;;19.71;27.10;98919.61;255661;1119;114848;-80
2021/04/10 16:52:14;;;;;;;8.10;3.33;;;;;;;19.56;26.96;98927.36;254701;1120;116722;-74
2021/04/10 16:57:17;;;;;;;6.57;3.03;;;;;;;19.40;27.64;98925.38;254778;1119;114860;-76
2021/04/10 17:02:20;;;;;;;10.23;3.90;;;;;;;19.28;27.46;98932.84;255285;1119;115366;-69
2021/04/10 17:07:23;;;;;;;7.57;3.30;;;;;;;19.17;27.64;98934.92;255881;1119;116259;-70
2021/04/10 17:12:26;;;;;;;8.53;3.60;;;;;;;19.04;27.78;98936.13;257113;1119;114509;-70
2021/04/10 17:17:28;;;;;;;9.48;3.68;;;;;;;18.96;27.86;98946.83;257931;1119;114907;-69
2021/04/10 17:22:31;;;;;;;10.35;4.00;;;;;;;18.82;28.04;98942.80;258376;1118;115376;-68
2021/04/10 17:27:34;;;;;;;10.43;3.40;;;;;;;18.70;28.29;98956.58;257921;1119;114496;-72
2021/04/10 17:32:37;;;;;;;15.13;3.85;;;;;;;18.52;28.74;98959.22;258171;1119;114707;-73
2021/04/10 17:37:40;;;;;;;13.38;6.48;;;;;;;18.30;29.05;98960.41;257545;1119;115033;-76
2021/04/10 17:42:43;;;;;;;18.20;4.60;;;;;;;18.08;29.10;98965.14;256687;1119;114811;-79
2021/04/10 17:47:46;;;;;;;26.90;9.07;;;;;;;17.89;29.87;98968.70;256036;1119;115729;-78
2021/04/10 17:52:49;;;;;;;22.30;6.23;;;;;;;17.78;30.44;98979.63;258432;1119;116774;-79
2021/04/10 17:57:52;;;;;;;21.33;5.20;;;;;;;17.62;30.09;98977.46;257816;1118;114701;-76
2021/04/10 18:02:56;;;;;;;35.00;6.85;;;;;;;17.46;30.63;98990.65;258198;1118;115042;-75
2021/04/10 18:07:59;;;;;;;51.18;7.90;;;;;;;17.28;30.87;98994.98;257101;1119;115838;-78
2021/04/10 18:13:04;;;;;;;41.43;6.68;;;;;;;17.06;31.17;98996.94;257077;1120;114723;-78
2021/04/10 18:18:08;;;;;;;31.93;6.38;;;;;;;16.85;31.63;99013.14;256553;1118;114755;-77
2021/04/10 18:23:23;;;;;;;19.90;5.28;;;;;;;16.62;31.94;99015.13;257096;1119;115041;-76
2021/04/10 18:28:26;;;;;;;22.65;5.78;;;;;;;16.44;32.54;99016.70;258037;1119;114690;-75
2021/04/10 18:33:35;;;;;;;18.20;6.40;;;;;;;16.27;32.88;99018.16;255594;1119;114774;-74
2021/04/10 18:38:37;;;;;;;15.28;4.88;;;;;;;16.20;32.95;99030.41;257371;1119;115153;-79
2021/04/10 18:43:41;;;;;;;21.15;6.88;;;;;;;16.27;32.56;99031.59;258345;1119;114531;-78
2021/04/10 18:48:44;;;;;;;30.57;7.77;;;;;;;16.27;33.17;99037.84;256795;1119;114699;-78
2021/04/10 18:53:51;;;;;;;22.43;7.03;;;;;;;16.14;33.64;99031.80;257628;1119;115307;-78
2021/04/10 18:58:55;;;;;;;20.60;6.13;;;;;;;15.98;33.49;99044.82;253187;1119;114633;-78
2021/04/10 19:03:58;;;;;;;33.60;15.20;;;;;;;15.87;33.69;99040.36;257781;1119;114816;-79
2021/04/10 19:09:01;;;;;;;31.98;11.68;;;;;;;15.74;34.02;99045.89;256519;1120;115081;-79
2021/04/10 19:14:13;;;;;;;28.68;15.78;;;;;;;15.60;34.35;99046.16;257542;1118;115314;-77
2021/04/10 19:19:17;;;;;;;;;;;;;;;15.50;34.78;99053.26;258384;1118;115014;-76
2021/04/10 19:24:21;;;;;;;28.28;10.20;;;;;;;15.43;34.46;99052.91;257116;1119;103058;-77
2021/04/10 19:29:24;;;;;;;32.85;12.35;;;;;;;15.35;34.81;99066.07;258343;1118;115168;-77
2021/04/10 19:34:27;;;;;;;30.28;10.63;;;;;;;15.20;35.41;99078.90;258178;1119;114994;-77
2021/04/10 19:39:30;;;;;;;22.90;9.80;;;;;;;15.07;35.60;99068.30;258315;1118;114967;-76
2021/04/10 19:44:33;;;;;;;22.05;9.25;;;;;;;15.03;34.92;99066.84;257937;1119;114997;-76
2021/04/10 19:49:36;;;;;;;19.10;8.93;;;;;;;15.12;34.99;99074.16;258015;1119;115352;-75
2021/04/10 19:54:39;;;;;;;22.10;9.27;;;;;;;15.05;35.29;99080.14;258353;1118;114699;-76
2021/04/10 19:59:42;;;;;;;29.05;9.43;;;;;;;14.89;36.19;99097.42;257406;1119;115548;-73
2021/04/10 20:04:46;;;;;;;27.45;10.40;;;;;;;14.70;36.19;99091.80;257414;1119;114684;-73
2021/04/10 20:09:48;;;;;;;31.93;12.33;;;;;;;14.69;35.65;99100.81;254042;1119;115367;-71
2021/04/10 20:14:51;;;;;;;24.55;11.88;;;;;;;14.64;36.16;99100.34;258253;1120;115120;-74
2021/04/10 20:19:54;;;;;;;34.88;13.83;;;;;;;14.57;36.99;99112.47;258162;1118;114877;-74
2021/04/10 20:24:57;;;;;;;42.28;16.25;;;;;;;14.42;37.34;99112.66;257186;1119;115122;-76
2021/04/10 20:29:59;;;;;;;41.93;19.00;;;;;;;14.23;37.90;99117.70;257851;1119;114862;-73
2021/04/10 20:35:03;;;;;;;52.33;23.65;;;;;;;13.99;37.67;99111.52;257919;1119;115155;-75
2021/04/10 20:40:07;;;;;;;52.20;23.93;;;;;;;13.79;38.77;99126.38;255920;1119;115255;-76
2021/04/10 20:45:10;;;;;;;51.85;26.18;;;;;;;13.59;38.79;99125.20;256988;1119;115428;-75
2021/04/10 20:50:14;;;;;;;61.27;24.50;;;;;;;13.44;39.21;99127.14;255564;1118;114896;-76
2021/04/10 20:55:17;;;;;;;55.80;25.05;;;;;;;13.28;39.82;99137.22;256947;1118;114984;-75
2021/04/10 21:00:20;;;;;;;59.18;27.53;;;;;;;13.09;40.62;99132.32;256929;1119;115098;-73
2021/04/10 21:05:23;;;;;;;68.55;30.80;;;;;;;12.95;40.72;99141.31;258273;1120;114608;-74
2021/04/10 21:10:26;;;;;;;70.10;34.65;;;;;;;12.79;40.90;99141.52;257638;1119;114944;-73
2021/04/10 21:15:29;;;;;;;66.53;34.47;;;;;;;12.69;41.25;99151.97;257691;1118;115031;-73
2021/04/10 21:20:32;;;;;;;69.05;34.38;;;;;;;12.60;41.13;99155.30;257183;1119;114848;-73
2021/04/10 21:25:34;;;;;;;70.93;33.95;;;;;;;12.49;41.21;99166.68;256961;1119;115011;-71
2021/04/10 21:30:37;;;;;;;66.90;33.38;;;;;;;12.36;42.06;99167.61;258330;1119;115168;-71
2021/04/10 21:35:40;;;;;;;69.98;34.88;;;;;;;12.26;41.95;99168.25;256940;1119;115191;-72
2021/04/10 21:40:43;;;;;;;64.18;32.70;;;;;;;12.13;42.11;99169.17;258097;1119;114992;-72
2021/04/10 21:45:46;;;;;;;67.30;33.58;;;;;;;12.00;43.17;99167.30;257122;1119;116836;-73
2021/04/10 21:50:49;;;;;;;65.28;33.83;;;;;;;11.92;43.56;99174.09;258085;1119;115003;-72
2021/04/10 21:55:51;;;;;;;73.60;36.45;;;;;;;11.81;43.02;99172.09;257131;1118;115444;-72
2021/04/10 22:01:07;;;;;;;72.53;35.53;;;;;;;11.74;43.92;99170.78;256893;1119;114908;-76
2021/04/10 22:06:11;;;;;;;71.78;35.95;;;;;;;11.63;43.87;99175.95;258415;1118;115119;-74
2021/04/10 22:11:17;;;;;;;75.40;37.88;;;;;;;11.51;44.19;99170.44;258094;1119;114507;-79
2021/04/10 22:16:26;;;;;;;79.85;37.90;;;;;;;11.39;44.44;99171.23;257361;1119;114875;-76
2021/04/10 22:21:32;;;;;;;76.83;38.25;;;;;;;11.29;44.52;99172.77;256654;1119;115043;-76
2021/04/10 22:26:35;;;;;;;;;;;;;;;11.19;45.10;99166.30;257263;1119;115276;-79
2021/04/10 22:31:40;;;;;;;74.23;39.20;;;;;;;11.07;45.27;99176.78;257131;1119;102910;-75
2021/04/10 22:36:43;;;;;;;75.55;38.25;;;;;;;11.01;45.29;99173.63;256933;1118;114882;-74
2021/04/10 22:41:46;;;;;;;74.38;38.00;;;;;;;10.93;45.65;99176.74;258416;1119;115149;-72
2021/04/10 22:46:49;;;;;;;64.88;36.08;;;;;;;10.80;45.98;99167.79;258157;1118;115093;-72
2021/04/10 22:51:52;;;;;;;72.65;38.70;;;;;;;10.72;45.92;99170.08;255765;1119;115110;-74
2021/04/10 22:56:54;;;;;;;68.53;37.53;;;;;;;10.62;46.26;99167.95;257731;1119;115092;-71
2021/04/10 23:01:57;;;;;;;70.38;37.88;;;;;;;10.49;46.36;99169.64;257616;1120;114893;-71
2021/04/10 23:07:00;;;;;;;75.00;40.33;;;;;;;10.39;46.43;99171.13;257098;1120;114957;-74
2021/04/10 23:12:03;;;;;;;77.00;40.95;;;;;;;10.30;46.85;99163.72;256011;1118;115178;-72
2021/04/10 23:17:10;;;;;;;75.57;39.70;;;;;;;10.23;46.37;99165.84;258049;1119;115179;-72
2021/04/10 23:22:13;;;;;;;78.43;40.98;;;;;;;10.19;47.02;99154.53;258291;1119;115031;-72